Time;durP1;ratioP1;P1;durP2;ratioP2;P2;SDS_P1;SDS_P2;PMS_P1;PMS_P2;Temp;Humidity;BMP_temperature;BMP_pressure;BME280_temperature;BME280_humidity;BME280_pressure;Samples;Min_cycle;Max_cycle;Signal;HPM_P1;HPM_P2
2021/08/16 00:00:00;;;;;;;12.05;8.95;;;;;;;15.83;100.00;92838.34;2089556;28;20024;-84
2021/08/16 00:01:01;;;;;;;9.55;8.32;;;;;;;15.74;100.00;92846.47;2093476;28;20028;-82
2021/08/16 00:02:04;;;;;;;11.55;9.00;;;;;;;15.73;100.00;92855.75;2097707;28;20024;-84
2021/08/16 00:03:05;;;;;;;10.98;9.05;;;;;;;15.83;100.00;92849.13;2102291;28;20106;-83
2021/08/16 00:04:06;;;;;;;12.27;9.60;;;;;;;15.89;100.00;92851.94;2101821;28;20065;-82
2021/08/16 00:05:08;;;;;;;13.90;9.55;;;;;;;16.02;100.00;92850.56;2101431;28;20555;-82
2021/08/16 00:06:09;;;;;;;12.75;10.30;;;;;;;15.97;100.00;92866.59;2101596;28;20055;-83
2021/08/16 00:07:10;;;;;;;13.13;10.52;;;;;;;15.96;100.00;92863.16;2093402;28;20047;-83
2021/08/16 00:08:11;;;;;;;11.52;9.88;;;;;;;15.96;100.00;92865.84;2092324;28;20075;-82
2021/08/16 00:09:12;;;;;;;12.10;9.48;;;;;;;16.01;100.00;92854.44;2093589;28;20033;-85
2021/08/16 00:10:15;;;;;;;15.73;10.95;;;;;;;16.04;100.00;92855.47;2093147;28;20021;-85
2021/08/16 00:11:16;;;;;;;16.35;10.57;;;;;;;16.11;100.00;92855.91;2101881;27;20028;-82
2021/08/16 00:12:16;;;;;;;11.60;10.50;;;;;;;16.06;100.00;92856.50;2102834;28;20017;-86
2021/08/16 00:13:20;;;;;;;13.38;10.52;;;;;;;16.16;100.00;92843.75;2100339;28;20032;-82
2021/08/16 00:14:21;;;;;;;15.85;11.10;;;;;;;16.15;100.00;92853.00;2093645;28;20470;-84
2021/08/16 00:15:21;;;;;;;18.10;10.52;;;;;;;16.14;100.00;92848.81;2092992;28;20044;-84
2021/08/16 00:16:22;;;;;;;18.00;11.15;;;;;;;16.15;100.00;92847.63;2093086;28;20021;-86
2021/08/16 00:17:23;;;;;;;12.00;10.68;;;;;;;16.15;100.00;92844.91;2096925;28;20021;-86
2021/08/16 00:18:24;;;;;;;15.23;10.90;;;;;;;16.24;100.00;92854.91;2097244;28;20110;-85
2021/08/16 00:19:25;;;;;;;11.95;9.98;;;;;;;16.22;100.00;92854.63;2110033;28;20106;-87
2021/08/16 00:20:27;;;;;;;14.02;10.45;;;;;;;16.21;100.00;92856.59;2101639;28;20035;-85
2021/08/16 00:21:28;;;;;;;12.65;10.57;;;;;;;16.21;100.00;92853.16;2093643;28;20029;-84
2021/08/16 00:22:29;;;;;;;14.35;10.07;;;;;;;16.19;100.00;92850.91;2096838;28;20029;-85
2021/08/16 00:23:30;;;;;;;13.27;10.20;;;;;;;16.24;100.00;92850.28;2101357;28;20057;-86
2021/08/16 00:24:31;;;;;;;12.68;10.40;;;;;;;16.31;100.00;92847.25;2110104;28;20512;-85
2021/08/16 00:25:32;;;;;;;15.48;10.60;;;;;;;16.29;100.00;92849.66;2102622;28;20027;-85
2021/08/16 00:26:33;;;;;;;16.27;10.55;;;;;;;16.31;100.00;92841.84;2101836;28;20028;-87
2021/08/16 00:27:34;;;;;;;15.50;10.63;;;;;;;16.30;100.00;92845.75;2109849;28;20028;-84
2021/08/16 00:28:35;;;;;;;16.30;10.90;;;;;;;16.30;100.00;92834.22;2109487;28;20111;-85
2021/08/16 00:29:37;;;;;;;14.90;10.35;;;;;;;16.30;100.00;92837.66;2101730;28;20058;-86
2021/08/16 00:30:37;;;;;;;12.98;10.63;;;;;;;16.26;100.00;92828.25;2091585;28;20021;-86
2021/08/16 00:31:39;;;;;;;11.57;10.38;;;;;;;16.24;100.00;92825.25;2093220;28;20020;-83
2021/08/16 00:32:40;;;;;;;13.90;10.25;;;;;;;16.27;100.00;92821.66;2089091;28;20052;-84
2021/08/16 00:33:41;;;;;;;13.98;10.35;;;;;;;16.29;100.00;92814.59;2088936;28;20029;-85
2021/08/16 00:34:42;;;;;;;14.40;10.73;;;;;;;16.22;100.00;92812.22;2101703;28;20089;-82
2021/08/16 00:35:43;;;;;;;14.85;10.80;;;;;;;16.28;100.00;92812.34;2109888;28;20020;-85
2021/08/16 00:36:44;;;;;;;13.40;11.00;;;;;;;16.25;100.00;92807.88;2109708;28;20469;-84
2021/08/16 00:37:46;;;;;;;12.23;10.05;;;;;;;16.23;100.00;92802.94;2091813;28;20120;-86
2021/08/16 00:38:47;;;;;;;10.80;9.68;;;;;;;16.26;100.00;92806.66;2093186;28;20016;-85
2021/08/16 00:39:48;;;;;;;14.77;10.85;;;;;;;16.19;100.00;92807.00;2101134;28;20163;-83
2021/08/16 00:40:49;;;;;;;15.07;10.52;;;;;;;16.18;100.00;92808.97;2110026;28;20035;-82
2021/08/16 00:41:50;;;;;;;11.50;10.40;;;;;;;16.11;100.00;92803.91;2101441;28;20024;-85
2021/08/16 00:42:51;;;;;;;12.63;11.02;;;;;;;16.09;100.00;92811.72;2105008;28;20099;-87
2021/08/16 00:43:52;;;;;;;14.88;10.00;;;;;;;16.13;100.00;92814.25;2109847;28;20106;-83
2021/08/16 00:44:53;;;;;;;16.23;9.70;;;;;;;16.11;100.00;92804.66;2101123;28;20063;-85
2021/08/16 00:45:55;;;;;;;16.45;10.80;;;;;;;16.03;100.00;92813.56;2092924;28;20024;-82
2021/08/16 00:46:56;;;;;;;15.77;10.45;;;;;;;16.08;100.00;92808.28;2108793;28;20073;-84
2021/08/16 00:47:57;;;;;;;19.77;10.93;;;;;;;16.08;100.00;92804.84;2101061;28;20020;-84
2021/08/16 00:48:58;;;;;;;17.02;10.68;;;;;;;16.03;100.00;92810.84;2089669;28;20016;-84
2021/08/16 00:49:59;;;;;;;15.23;11.10;;;;;;;16.00;100.00;92812.50;2092959;28;20409;-84
2021/08/16 00:51:02;;;;;;;15.25;11.02;;;;;;;15.99;100.00;92818.38;2092758;28;20036;-85
2021/08/16 00:52:04;;;;;;;11.15;10.05;;;;;;;15.98;100.00;92814.16;2093334;28;20025;-85
2021/08/16 00:53:05;;;;;;;12.02;10.18;;;;;;;15.97;100.00;92821.50;2101645;27;20036;-86
2021/08/16 00:54:07;;;;;;;15.15;10.27;;;;;;;15.96;100.00;92814.63;2101533;28;20028;-83
2021/08/16 00:55:10;;;;;;;13.38;10.13;;;;;;;15.87;100.00;92817.38;2109988;28;20522;-85
2021/08/16 00:56:11;;;;;;;14.93;11.40;;;;;;;15.88;100.00;92815.41;2101457;28;20031;-84
2021/08/16 00:57:12;;;;;;;16.20;10.15;;;;;;;15.92;100.00;92805.94;2101228;28;20119;-83
2021/08/16 00:58:12;;;;;;;19.42;10.70;;;;;;;15.90;100.00;92811.06;2109386;28;20035;-86
2021/08/16 00:59:16;;;;;;;17.17;10.43;;;;;;;15.88;100.00;92813.47;2109670;28;20027;-82
2021/08/16 01:00:17;;;;;;;17.33;10.90;;;;;;;15.85;100.00;92817.09;2110075;27;20081;-84
2021/08/16 01:01:18;;;;;;;14.63;10.15;;;;;;;15.82;100.00;92818.72;2109662;28;20020;-84
2021/08/16 01:02:20;;;;;;;17.50;10.55;;;;;;;15.78;100.00;92818.16;2109129;28;20032;-86
2021/08/16 01:03:21;;;;;;;13.20;10.45;;;;;;;15.84;100.00;92816.31;2101861;28;20020;-85
2021/08/16 01:04:22;;;;;;;12.95;10.75;;;;;;;15.82;100.00;92823.38;2109874;28;20028;-85
2021/08/16 01:05:23;;;;;;;12.95;10.50;;;;;;;15.79;100.00;92811.56;2093268;28;20021;-86
2021/08/16 01:06:24;;;;;;;13.23;10.95;;;;;;;15.79;100.00;92816.94;2101180;28;20036;-85
2021/08/16 01:07:25;;;;;;;15.57;10.65;;;;;;;15.78;100.00;92817.41;2109334;28;20035;-86
2021/08/16 01:08:26;;;;;;;13.02;10.20;;;;;;;15.80;100.00;92810.38;2100586;28;20039;-86
2021/08/16 01:09:27;;;;;;;15.60;11.27;;;;;;;15.79;100.00;92811.56;2089376;28;20049;-85
2021/08/16 01:10:30;;;;;;;19.77;11.25;;;;;;;15.79;100.00;92808.13;2101246;28;20377;-83
2021/08/16 01:11:32;;;;;;;18.73;12.02;;;;;;;15.76;100.00;92809.78;2110075;27;20032;-84
2021/08/16 01:12:34;;;;;;;17.27;10.77;;;;;;;15.79;100.00;92810.81;2110096;28;20145;-84
2021/08/16 01:13:35;;;;;;;14.68;11.90;;;;;;;15.73;100.00;92818.78;2109080;27;20032;-83
2021/08/16 01:14:36;;;;;;;14.68;11.15;;;;;;;15.71;100.00;92810.38;2109694;28;20019;-86
2021/08/16 01:15:37;;;;;;;18.38;12.02;;;;;;;15.72;100.00;92811.16;2109622;28;20381;-85
2021/08/16 01:16:38;;;;;;;10.90;9.80;;;;;;;15.73;100.00;92812.63;2109696;28;20024;-84
2021/08/16 01:17:41;;;;;;;17.38;11.07;;;;;;;15.72;100.00;92809.22;2101321;28;20032;-83
2021/08/16 01:18:42;;;;;;;20.35;10.55;;;;;;;15.77;100.00;92805.13;2100955;28;20492;-82
2021/08/16 01:19:43;;;;;;;34.10;11.48;;;;;;;15.76;100.00;92796.31;2092618;28;20029;-85
2021/08/16 01:20:44;;;;;;;13.20;10.77;;;;;;;15.74;100.00;92804.09;2092816;28;20028;-84
2021/08/16 01:21:45;;;;;;;23.90;11.40;;;;;;;15.68;100.00;92811.31;2101227;28;20417;-84
2021/08/16 01:22:46;;;;;;;14.68;11.25;;;;;;;15.70;100.00;92808.16;2109434;28;20147;-86
2021/08/16 01:23:47;;;;;;;24.13;11.30;;;;;;;15.66;100.00;92811.00;2105239;28;20453;-85
2021/08/16 01:24:48;;;;;;;35.78;10.93;;;;;;;15.73;100.00;92808.00;2100700;28;20354;-83
2021/08/16 01:25:49;;;;;;;24.40;11.07;;;;;;;15.69;100.00;92820.16;2093217;28;20450;-85
2021/08/16 01:26:50;;;;;;;21.88;10.45;;;;;;;15.78;100.00;92823.53;2109665;27;20269;-86
2021/08/16 01:27:51;;;;;;;33.60;11.52;;;;;;;15.73;100.00;92826.13;2117789;27;20039;-85
2021/08/16 01:28:52;;;;;;;30.88;10.80;;;;;;;15.71;100.00;92834.63;2101328;28;20024;-86
2021/08/16 01:29:53;;;;;;;27.45;10.23;;;;;;;15.76;100.00;92835.97;2100671;28;20429;-82
2021/08/16 01:31:05;;;;;;;12.85;11.13;;;;;;;15.68;100.00;92832.88;2100733;28;20032;-81
2021/08/16 01:32:07;;;;;;;13.40;10.35;;;;;;;15.73;100.00;92836.91;2104008;28;20054;-83
2021/08/16 01:33:09;;;;;;;10.48;9.30;;;;;;;15.74;100.00;92841.81;2105559;28;20493;-84
2021/08/16 01:34:10;;;;;;;19.67;11.05;;;;;;;15.78;100.00;92844.34;2109818;28;20066;-85
2021/08/16 01:35:12;;;;;;;12.45;10.05;;;;;;;15.81;100.00;92840.75;2117926;27;20491;-85
2021/08/16 01:36:12;;;;;;;15.32;10.80;;;;;;;15.83;100.00;92836.38;2108964;28;20076;-84
2021/08/16 01:37:13;;;;;;;13.38;10.82;;;;;;;15.79;100.00;92843.88;2101134;28;20485;-85
2021/08/16 01:38:17;;;;;;;12.35;11.05;;;;;;;15.82;100.00;92842.25;2107330;28;20020;-83
2021/08/16 01:39:18;;;;;;;12.27;10.75;;;;;;;15.88;100.00;92853.88;2093424;28;20047;-84
2021/08/16 01:40:19;;;;;;;13.48;11.57;;;;;;;15.86;100.00;92848.22;2092856;28;20509;-84
2021/08/16 01:41:20;;;;;;;12.40;11.18;;;;;;;15.91;100.00;92849.53;2092610;28;20496;-85
2021/08/16 01:42:21;;;;;;;13.10;10.35;;;;;;;15.91;100.00;92846.84;2092147;28;20028;-85
2021/08/16 01:43:22;;;;;;;14.32;11.65;;;;;;;15.91;100.00;92849.53;2093259;28;20048;-85
2021/08/16 01:44:23;;;;;;;11.07;9.98;;;;;;;15.91;100.00;92842.22;2092418;28;20071;-82
2021/08/16 01:45:24;;;;;;;12.38;10.93;;;;;;;15.93;100.00;92845.19;2092682;28;20021;-85
2021/08/16 01:46:25;;;;;;;13.35;10.82;;;;;;;16.00;100.00;92844.13;2100898;28;20122;-85
2021/08/16 01:47:26;;;;;;;13.00;10.07;;;;;;;16.02;100.00;92845.16;2100329;28;20028;-85
2021/08/16 01:48:27;;;;;;;13.60;10.93;;;;;;;16.03;100.00;92843.22;2088811;28;20028;-85
2021/08/16 01:49:28;;;;;;;13.65;10.60;;;;;;;16.06;100.00;92845.72;2100601;28;20039;-84
2021/08/16 01:50:29;;;;;;;12.55;11.02;;;;;;;16.03;100.00;92838.56;2109195;28;20465;-82
2021/08/16 01:51:30;;;;;;;12.65;10.63;;;;;;;16.03;100.00;92840.50;2109425;27;20059;-85
2021/08/16 01:52:31;;;;;;;12.13;11.00;;;;;;;16.00;100.00;92834.06;2109293;28;20027;-84
2021/08/16 01:53:32;;;;;;;12.25;10.25;;;;;;;15.97;100.00;92837.66;2092076;28;20017;-82
2021/08/16 01:54:34;;;;;;;13.23;10.25;;;;;;;16.00;100.00;92834.06;2100997;28;20130;-82
2021/08/16 01:55:34;;;;;;;14.32;11.70;;;;;;;15.94;100.00;92827.09;2101126;28;20381;-84
2021/08/16 01:56:36;;;;;;;11.05;9.75;;;;;;;15.93;100.00;92826.31;2092842;28;20031;-85
2021/08/16 01:57:37;;;;;;;10.73;9.63;;;;;;;15.93;100.00;92831.69;2092605;28;20443;-83
2021/08/16 01:58:38;;;;;;;13.25;10.40;;;;;;;15.93;100.00;92829.00;2108754;27;20053;-83
2021/08/16 01:59:39;;;;;;;15.50;10.85;;;;;;;15.84;100.00;92827.09;2108875;28;20108;-85
2021/08/16 02:00:40;;;;;;;11.48;10.38;;;;;;;15.75;100.00;92829.84;2092664;28;20500;-85
2021/08/16 02:01:41;;;;;;;11.30;10.20;;;;;;;15.75;100.00;92837.91;2092555;28;20082;-84
2021/08/16 02:02:42;;;;;;;11.65;10.45;;;;;;;15.81;100.00;92840.75;2101068;28;20039;-82
2021/08/16 02:03:42;;;;;;;11.05;9.95;;;;;;;15.78;100.00;92837.00;2092659;28;20390;-85
2021/08/16 02:04:47;;;;;;;12.80;10.75;;;;;;;15.78;100.00;92838.97;2104330;28;20476;-84
2021/08/16 02:06:52;;;;;;;12.30;9.88;;;;;;;15.81;100.00;92840.75;2143429;27;20122;-86
2021/08/16 02:07:53;;;;;;;11.30;10.20;;;;;;;15.79;100.00;92837.75;2118268;28;20064;-86
2021/08/16 02:08:55;;;;;;;20.33;10.52;;;;;;;15.75;100.00;92834.47;2103824;28;20028;-83
2021/08/16 02:09:56;;;;;;;13.20;10.75;;;;;;;15.64;100.00;92840.38;2112651;27;20023;-84
2021/08/16 02:10:57;;;;;;;18.30;10.98;;;;;;;15.67;100.00;92836.78;2129034;27;20026;-84
2021/08/16 02:11:58;;;;;;;18.55;10.82;;;;;;;15.66;100.00;92831.81;2120794;28;20047;-85
2021/08/16 02:12:59;;;;;;;15.77;10.25;;;;;;;15.70;100.00;92835.84;2120709;28;20019;-86
2021/08/16 02:14:00;;;;;;;13.30;10.57;;;;;;;15.66;100.00;92834.50;2112553;28;20493;-85
2021/08/16 02:15:01;;;;;;;16.55;10.25;;;;;;;15.66;100.00;92829.88;2120855;27;20110;-84
2021/08/16 02:16:03;;;;;;;11.23;10.05;;;;;;;15.64;100.00;92831.50;2120242;27;20024;-84
2021/08/16 02:17:05;;;;;;;10.80;9.70;;;;;;;15.63;100.00;92830.78;2120823;27;20109;-86
2021/08/16 02:18:06;;;;;;;11.10;9.60;;;;;;;15.62;100.00;92827.31;2129351;27;20468;-86
2021/08/16 02:19:07;;;;;;;12.73;9.13;;;;;;;15.61;100.00;92820.44;2112403;28;20035;-84
2021/08/16 02:20:09;;;;;;;12.80;10.18;;;;;;;15.62;100.00;92827.31;2110617;28;20035;-82
2021/08/16 02:21:10;;;;;;;20.30;10.90;;;;;;;15.69;100.00;92820.88;2103932;28;20035;-85
2021/08/16 02:22:11;;;;;;;11.73;10.18;;;;;;;15.78;100.00;92830.88;2112051;28;20516;-84
2021/08/16 02:23:12;;;;;;;13.63;10.45;;;;;;;15.78;100.00;92828.94;2112198;28;20032;-85
2021/08/16 02:24:13;;;;;;;16.10;10.95;;;;;;;15.74;100.00;92827.59;2095602;28;20024;-84
2021/08/16 02:25:14;;;;;;;14.07;9.93;;;;;;;15.64;100.00;92828.81;2095333;28;20119;-86
2021/08/16 02:26:14;;;;;;;12.90;9.77;;;;;;;15.58;100.00;92817.88;2095388;28;20502;-84
2021/08/16 02:27:16;;;;;;;11.68;9.85;;;;;;;15.55;100.00;92822.25;2103499;28;20039;-83
2021/08/16 02:28:17;;;;;;;15.50;9.18;;;;;;;15.50;100.00;92825.56;2103914;28;20047;-87
2021/08/16 02:29:18;;;;;;;9.85;8.70;;;;;;;15.52;100.00;92825.84;2103916;28;20035;-83
2021/08/16 02:30:19;;;;;;;9.20;8.13;;;;;;;15.50;100.00;92822.13;2103590;28;20466;-83
2021/08/16 02:31:23;;;;;;;10.18;7.63;;;;;;;15.47;100.00;92831.13;2112238;27;20292;-83
2021/08/16 02:32:24;;;;;;;10.57;8.23;;;;;;;15.42;100.00;92832.47;2112120;28;20536;-83
2021/08/16 02:33:25;;;;;;;8.82;7.88;;;;;;;15.41;100.00;92833.69;2111593;27;20072;-83
2021/08/16 02:34:26;;;;;;;9.23;7.70;;;;;;;15.31;100.00;92832.19;2107835;28;20023;-84
2021/08/16 02:35:27;;;;;;;9.75;7.10;;;;;;;15.24;100.00;92835.22;2095530;28;20024;-86
2021/08/16 02:36:28;;;;;;;9.35;7.68;;;;;;;15.25;100.00;92836.69;2103912;28;20574;-86
2021/08/16 02:37:29;;;;;;;7.80;7.18;;;;;;;15.27;100.00;92842.38;2095714;28;20032;-84
2021/08/16 02:38:30;;;;;;;9.70;7.30;;;;;;;15.27;100.00;92840.41;2108703;28;20023;-83
2021/08/16 02:39:31;;;;;;;8.57;7.03;;;;;;;15.27;100.00;92845.06;2103887;28;20032;-87
2021/08/16 02:40:32;;;;;;;10.13;8.02;;;;;;;15.25;100.00;92839.41;2103982;28;20032;-85
2021/08/16 02:41:33;;;;;;;7.97;7.18;;;;;;;15.22;100.00;92838.34;2095510;28;20111;-82
2021/08/16 02:42:34;;;;;;;9.55;8.13;;;;;;;15.38;100.00;92826.50;2103749;28;20075;-83
2021/08/16 02:43:34;;;;;;;10.95;8.27;;;;;;;15.35;100.00;92819.31;2103629;28;20102;-85
2021/08/16 02:44:35;;;;;;;8.50;7.72;;;;;;;15.24;100.00;92832.53;2094842;28;20394;-83
2021/08/16 02:45:36;;;;;;;13.07;8.50;;;;;;;15.24;100.00;92833.25;2103641;28;20023;-84
2021/08/16 02:46:37;;;;;;;12.50;7.90;;;;;;;15.21;100.00;92842.25;2112037;27;20024;-84
2021/08/16 02:47:39;;;;;;;13.80;7.45;;;;;;;15.19;100.00;92838.50;2112028;28;20488;-86
2021/08/16 02:48:39;;;;;;;11.10;7.47;;;;;;;15.13;100.00;92838.34;2103884;28;20063;-84
2021/08/16 02:49:40;;;;;;;7.43;6.82;;;;;;;15.17;100.00;92836.25;2111686;28;20031;-87
2021/08/16 02:50:42;;;;;;;8.35;6.53;;;;;;;15.15;100.00;92840.63;2111890;28;20020;-86
2021/08/16 02:51:43;;;;;;;16.13;6.32;;;;;;;15.10;100.00;92837.34;2103670;28;20020;-83
2021/08/16 02:52:43;;;;;;;13.77;6.20;;;;;;;15.08;100.00;92837.03;2095457;28;20079;-84
2021/08/16 02:53:44;;;;;;;17.58;6.10;;;;;;;15.09;100.00;92841.19;2095223;28;20083;-83
2021/08/16 02:54:45;;;;;;;13.88;6.15;;;;;;;15.17;100.00;92833.56;2095260;28;20024;-83
2021/08/16 02:55:46;;;;;;;98.32;7.78;;;;;;;15.12;100.00;92844.94;2103039;28;20515;-85
2021/08/16 02:56:47;;;;;;;53.05;6.50;;;;;;;15.18;100.00;92853.91;2095366;28;20516;-86
2021/08/16 02:57:48;;;;;;;56.85;7.10;;;;;;;15.21;100.00;92852.25;2103788;28;20035;-88
2021/08/16 02:58:49;;;;;;;17.70;6.97;;;;;;;15.30;100.00;92855.69;2103621;28;20077;-86
2021/08/16 02:59:50;;;;;;;10.93;6.88;;;;;;;15.26;100.00;92846.28;2103575;28;20643;-84
2021/08/16 03:00:51;;;;;;;11.00;8.57;;;;;;;15.21;100.00;92854.97;2120221;28;20024;-82
2021/08/16 03:01:52;;;;;;;25.63;8.45;;;;;;;15.14;100.00;92856.00;2103275;28;20031;-84
2021/08/16 03:02:53;;;;;;;12.98;8.85;;;;;;;15.13;100.00;92849.13;2120383;28;20587;-84
2021/08/16 03:03:54;;;;;;;17.98;9.00;;;;;;;15.19;100.00;92851.94;2120488;28;20023;-84
2021/08/16 03:04:55;;;;;;;15.57;8.38;;;;;;;15.24;100.00;92854.06;2095144;28;20508;-82
2021/08/16 03:05:56;;;;;;;17.48;9.20;;;;;;;15.22;100.00;92851.81;2095036;28;20028;-84
2021/08/16 03:06:57;;;;;;;18.45;9.07;;;;;;;15.15;100.00;92859.47;2111606;28;20033;-82
2021/08/16 03:07:58;;;;;;;12.52;8.88;;;;;;;15.14;100.00;92860.63;2099651;28;20470;-83
2021/08/16 03:08:59;;;;;;;35.45;9.93;;;;;;;15.14;100.00;92858.69;2111833;28;20153;-84
2021/08/16 03:10:00;;;;;;;12.75;8.93;;;;;;;15.18;100.00;92861.22;2111805;28;20401;-85
2021/08/16 03:11:03;;;;;;;10.60;9.30;;;;;;;15.19;100.00;92862.72;2111719;28;20027;-83
2021/08/16 03:12:04;;;;;;;11.20;8.60;;;;;;;15.25;100.00;92852.84;2104006;28;20024;-82
2021/08/16 03:13:05;;;;;;;17.95;9.85;;;;;;;15.22;100.00;92867.22;2094627;28;20028;-85
2021/08/16 03:14:06;;;;;;;10.50;8.77;;;;;;;15.22;100.00;92862.56;2094964;28;20382;-86
2021/08/16 03:15:08;;;;;;;16.92;9.10;;;;;;;15.27;100.00;92858.53;2095053;28;20122;-84
2021/08/16 03:16:09;;;;;;;12.90;9.45;;;;;;;15.27;100.00;92850.44;2095246;28;20036;-84
2021/08/16 03:17:10;;;;;;;13.63;9.73;;;;;;;15.30;100.00;92858.38;2095156;28;20021;-86
2021/08/16 03:18:11;;;;;;;12.38;9.73;;;;;;;15.30;100.00;92863.00;2089811;28;20452;-88
2021/08/16 03:19:12;;;;;;;10.40;9.30;;;;;;;15.25;100.00;92863.63;2089488;28;20021;-85
2021/08/16 03:20:13;;;;;;;12.13;10.20;;;;;;;15.33;100.00;92867.50;2097502;28;20058;-85
2021/08/16 03:21:14;;;;;;;19.45;9.63;;;;;;;15.38;100.00;92864.19;2097853;28;20473;-84
2021/08/16 03:22:15;;;;;;;13.90;9.48;;;;;;;15.41;100.00;92866.00;2097754;28;20031;-83
2021/08/16 03:23:16;;;;;;;12.02;9.50;;;;;;;15.43;100.00;92866.28;2089469;28;21040;-86
2021/08/16 03:24:17;;;;;;;10.55;9.45;;;;;;;15.42;100.00;92866.75;2105763;28;20035;-83
2021/08/16 03:25:18;;;;;;;14.35;9.10;;;;;;;15.43;100.00;92868.22;2097588;28;20032;-84
2021/08/16 03:26:19;;;;;;;16.35;10.25;;;;;;;15.43;100.00;92863.59;2097897;28;20031;-83
2021/08/16 03:27:19;;;;;;;10.95;9.82;;;;;;;15.45;100.00;92860.44;2114724;28;20032;-82
2021/08/16 03:28:20;;;;;;;12.27;10.45;;;;;;;15.53;100.00;92862.34;2105954;28;20093;-85
2021/08/16 03:29:21;;;;;;;12.70;10.02;;;;;;;15.55;100.00;92859.97;2106140;28;20031;-84
2021/08/16 03:30:22;;;;;;;11.63;10.07;;;;;;;15.54;100.00;92850.41;2105553;28;20110;-83
2021/08/16 03:31:23;;;;;;;16.92;10.57;;;;;;;15.54;100.00;92865.78;2097867;28;20069;-82
2021/08/16 03:32:24;;;;;;;12.57;10.15;;;;;;;15.59;100.00;92860.56;2106263;28;20489;-86
2021/08/16 03:33:25;;;;;;;14.85;10.50;;;;;;;15.59;100.00;92867.91;2097198;28;20017;-84
2021/08/16 03:34:28;;;;;;;13.63;10.40;;;;;;;15.55;100.00;92861.94;2085655;28;20017;-84
2021/08/16 03:35:29;;;;;;;15.45;10.75;;;;;;;15.63;100.00;92857.72;2097735;28;20032;-87
2021/08/16 03:36:31;;;;;;;11.27;9.90;;;;;;;15.62;100.00;92850.81;2097682;28;20509;-84
2021/08/16 03:37:34;;;;;;;27.50;24.25;;;;;;;15.53;100.00;92861.63;2089588;28;20028;-85
2021/08/16 03:38:36;;;;;;;23.42;12.18;;;;;;;15.52;100.00;92863.56;2085161;28;20025;-83
2021/08/16 03:39:37;;;;;;;13.68;11.07;;;;;;;15.49;100.00;92859.06;2106157;28;20499;-84
2021/08/16 03:40:38;;;;;;;14.77;10.90;;;;;;;15.43;100.00;92862.84;2114239;28;20051;-87
2021/08/16 03:41:39;;;;;;;11.43;10.27;;;;;;;15.41;100.00;92857.91;2105828;28;20024;-85
2021/08/16 03:42:40;;;;;;;14.30;10.95;;;;;;;15.39;100.00;92867.63;2114416;28;20488;-85
2021/08/16 03:43:41;;;;;;;13.98;9.77;;;;;;;15.30;100.00;92861.06;2105847;28;20036;-85
2021/08/16 03:44:42;;;;;;;17.45;10.40;;;;;;;15.36;100.00;92858.50;2089423;28;20020;-83
2021/08/16 03:45:43;;;;;;;14.80;10.07;;;;;;;15.40;100.00;92859.09;2105911;28;20028;-86
2021/08/16 03:46:44;;;;;;;14.63;10.93;;;;;;;15.31;100.00;92867.19;2105459;28;20456;-83
2021/08/16 03:47:46;;;;;;;11.20;10.00;;;;;;;15.32;100.00;92868.69;2105965;28;20016;-85
2021/08/16 03:48:47;;;;;;;11.63;10.10;;;;;;;15.36;100.00;92867.34;2106031;28;20032;-84
2021/08/16 03:49:48;;;;;;;12.68;10.55;;;;;;;15.35;100.00;92870.47;2105880;28;20024;-83
2021/08/16 03:50:49;;;;;;;15.25;9.65;;;;;;;15.37;100.00;92873.50;2105659;28;20484;-82
2021/08/16 03:51:50;;;;;;;11.57;10.48;;;;;;;15.37;100.00;92868.09;2097674;28;20036;-84
2021/08/16 03:52:51;;;;;;;11.77;10.05;;;;;;;15.41;100.00;92871.38;2096986;28;20028;-85
2021/08/16 03:53:52;;;;;;;14.32;10.25;;;;;;;15.44;100.00;92872.41;2089462;28;20063;-86
2021/08/16 03:54:53;;;;;;;12.65;8.88;;;;;;;15.46;100.00;92865.38;2089460;28;20029;-83
2021/08/16 03:55:54;;;;;;;14.20;10.55;;;;;;;15.51;100.00;92869.41;2105625;28;20062;-85
2021/08/16 03:56:54;;;;;;;12.35;10.20;;;;;;;15.51;100.00;92867.47;2114412;28;20027;-83
2021/08/16 03:57:55;;;;;;;11.38;10.35;;;;;;;15.50;100.00;92871.38;2105523;28;20077;-85
2021/08/16 03:58:56;;;;;;;12.82;10.48;;;;;;;15.55;100.00;92876.13;2085053;28;20024;-82
2021/08/16 03:59:57;;;;;;;10.80;9.73;;;;;;;15.52;100.00;92879.72;2097535;28;20481;-86
2021/08/16 04:00:58;;;;;;;14.10;9.65;;;;;;;15.52;100.00;92871.66;2097454;28;20016;-85
2021/08/16 04:01:59;;;;;;;15.88;10.40;;;;;;;15.51;100.00;92872.09;2105804;28;20020;-85
2021/08/16 04:03:00;;;;;;;11.07;9.50;;;;;;;15.53;100.00;92872.38;2105689;28;20089;-83
2021/08/16 04:04:02;;;;;;;14.82;10.15;;;;;;;15.52;100.00;92885.13;2096967;28;20028;-82
2021/08/16 04:05:04;;;;;;;14.60;9.75;;;;;;;15.50;100.00;92874.06;2097448;28;20103;-85
2021/08/16 04:06:05;;;;;;;12.93;8.95;;;;;;;15.54;100.00;92874.66;2097345;28;20385;-84
2021/08/16 04:07:06;;;;;;;11.32;9.70;;;;;;;15.53;100.00;92878.53;2097527;28;20052;-86
2021/08/16 04:08:07;;;;;;;13.00;10.18;;;;;;;15.49;100.00;92877.19;2094217;28;20029;-86
2021/08/16 04:09:08;;;;;;;12.77;9.63;;;;;;;15.58;100.00;92882.56;2114152;28;20035;-85
2021/08/16 04:10:10;;;;;;;19.98;9.57;;;;;;;15.59;100.00;92873.28;2122454;27;20072;-84
2021/08/16 04:11:12;;;;;;;11.40;10.18;;;;;;;15.58;100.00;92872.53;2114040;28;20523;-85
2021/08/16 04:12:15;;;;;;;10.50;9.38;;;;;;;15.64;100.00;92863.84;2097663;28;20428;-83
2021/08/16 04:13:16;;;;;;;14.35;10.00;;;;;;;15.64;100.00;92861.16;2098018;28;20029;-82
2021/08/16 04:14:17;;;;;;;21.15;11.00;;;;;;;15.65;100.00;92857.28;2097412;28;20032;-86
2021/08/16 04:15:21;;;;;;;10.02;9.02;;;;;;;15.61;100.00;92844.69;2097032;28;20517;-86
2021/08/16 04:16:23;;;;;;;14.68;9.60;;;;;;;15.63;100.00;92841.53;2097661;28;20066;-83
2021/08/16 04:17:23;;;;;;;12.50;9.32;;;;;;;15.65;100.00;92855.31;2089244;28;20449;-83
2021/08/16 04:18:24;;;;;;;11.45;9.20;;;;;;;15.68;100.00;92853.69;2105645;28;20209;-87
2021/08/16 04:19:25;;;;;;;13.95;9.50;;;;;;;15.65;100.00;92854.59;2105639;28;20020;-84
2021/08/16 04:20:26;;;;;;;11.30;8.85;;;;;;;15.57;100.00;92846.03;2097129;28;20110;-85
2021/08/16 04:21:27;;;;;;;9.73;8.77;;;;;;;15.62;100.00;92846.16;2105051;28;20027;-83
2021/08/16 04:22:28;;;;;;;12.63;8.50;;;;;;;15.73;100.00;92853.06;2097304;28;20027;-85
2021/08/16 04:23:29;;;;;;;10.77;8.82;;;;;;;15.74;100.00;92851.84;2089081;28;20024;-83
2021/08/16 04:24:30;;;;;;;12.13;8.35;;;;;;;15.74;100.00;92854.56;2097448;28;20024;-86
2021/08/16 04:25:31;;;;;;;12.57;8.48;;;;;;;15.80;100.00;92858.09;2096869;28;20581;-85
2021/08/16 04:26:32;;;;;;;11.48;8.60;;;;;;;15.83;100.00;92846.44;2096583;28;20021;-84
2021/08/16 04:27:34;;;;;;;12.52;8.98;;;;;;;15.85;100.00;92854.81;2089092;28;20024;-85
2021/08/16 04:28:35;;;;;;;11.88;8.32;;;;;;;15.83;100.00;92849.88;2097492;28;20107;-83
2021/08/16 04:29:36;;;;;;;17.52;8.90;;;;;;;15.85;100.00;92850.16;2105049;28;20020;-83
2021/08/16 04:30:37;;;;;;;17.05;8.50;;;;;;;15.89;100.00;92866.16;2105387;28;20020;-84
2021/08/16 04:31:37;;;;;;;14.50;8.52;;;;;;;15.86;100.00;92862.44;2097115;28;20528;-88
2021/08/16 04:32:39;;;;;;;13.85;8.23;;;;;;;15.88;100.00;92864.66;2113869;28;20038;-86
2021/08/16 04:33:40;;;;;;;10.15;8.73;;;;;;;16.03;100.00;92870.91;2104995;28;20047;-85
2021/08/16 04:34:40;;;;;;;12.95;7.88;;;;;;;16.02;100.00;92853.25;2105560;28;20089;-85
2021/08/16 04:35:41;;;;;;;13.80;7.72;;;;;;;16.10;100.00;92850.94;2105834;28;20031;-87
2021/08/16 04:36:42;;;;;;;9.52;8.07;;;;;;;16.16;100.00;92849.13;2105447;28;20485;-84
2021/08/16 04:37:43;;;;;;;9.05;7.93;;;;;;;16.22;100.00;92857.34;2103872;28;20511;-83
2021/08/16 04:38:44;;;;;;;11.27;7.80;;;;;;;16.25;100.00;92856.44;2093738;28;20016;-86
2021/08/16 04:39:45;;;;;;;10.35;7.63;;;;;;;16.26;100.00;92855.22;2105567;28;20020;-86
2021/08/16 04:40:47;;;;;;;8.25;6.85;;;;;;;16.25;100.00;92849.09;2097239;28;20028;-85